Time;durP1;ratioP1;P1;durP2;ratioP2;P2;SDS_P1;SDS_P2;PMS_P1;PMS_P2;Temp;Humidity;BMP_temperature;BMP_pressure;BME280_temperature;BME280_humidity;BME280_pressure;Samples;Min_cycle;Max_cycle;Signal;HPM_P1;HPM_P2
2023/01/25 00:02:17;;;;;;;;;60.00;47.50;;;;;4.66;69.77;103049.88;5037797;28;45550;-72
2023/01/25 00:04:42;;;;;;;;;58.25;43.00;;;;;4.50;69.90;103037.19;5038044;28;45179;-72
2023/01/25 00:07:08;;;;;;;;;54.67;42.33;;;;;4.56;69.83;103047.50;5037606;28;46915;-73
2023/01/25 00:09:33;;;;;;;;;53.75;39.25;;;;;4.55;69.54;103035.25;5037693;28;45550;-72
2023/01/25 00:11:59;;;;;;;;;60.00;46.67;;;;;4.73;69.44;103067.19;5020366;28;45414;-75
2023/01/25 00:14:24;;;;;;;;;55.50;44.00;;;;;4.61;69.20;103015.78;5040523;28;45313;-72
2023/01/25 00:16:50;;;;;;;;;57.33;46.00;;;;;4.71;69.64;103058.47;5020100;28;48818;-74
2023/01/25 00:19:15;;;;;;;;;57.50;46.00;;;;;4.76;69.84;103053.91;5037128;28;45454;-71
2023/01/25 00:21:41;;;;;;;;;48.25;38.00;;;;;4.35;69.74;102971.81;5037490;28;45505;-71
2023/01/25 00:24:07;;;;;;;;;62.50;49.75;;;;;4.54;69.50;103017.72;5019855;28;45666;-71
2023/01/25 00:26:34;;;;;;;;;60.50;45.25;;;;;4.80;69.00;103037.94;5037167;28;46237;-71
2023/01/25 00:28:59;;;;;;;;;40.75;31.00;;;;;4.01;68.81;102910.66;5037392;28;45220;-74
2023/01/25 00:31:34;;;;;;;;;63.00;46.25;;;;;4.81;69.57;103039.69;5037221;28;45530;-72
2023/01/25 00:34:20;;;;;;;;;68.75;48.00;;;;;4.80;69.25;103042.34;5037415;28;45565;-71
2023/01/25 00:36:45;;;;;;;;;66.25;47.00;;;;;4.46;69.71;103003.97;5036832;28;45354;-73
2023/01/25 00:39:12;;;;;;;;;58.25;46.25;;;;;4.76;70.05;103046.00;5037239;28;45326;-71
2023/01/25 00:41:38;;;;;;;;;49.00;40.33;;;;;4.81;69.07;103041.47;5037028;28;45483;-71
2023/01/25 00:44:04;;;;;;;;;60.50;46.25;;;;;4.82;68.92;103033.50;5037206;28;45321;-74
2023/01/25 00:46:29;;;;;;;;;59.00;46.00;;;;;4.51;69.22;102975.69;5018713;28;46676;-71
2023/01/25 00:48:55;;;;;;;;;57.50;41.75;;;;;4.72;68.64;103013.63;5036833;28;45401;-72
2023/01/25 00:51:21;;;;;;;;;61.25;45.50;;;;;4.78;68.93;103036.28;5037238;28;45285;-72
2023/01/25 00:53:47;;;;;;;;;59.50;46.00;;;;;4.69;70.46;103034.81;5038207;28;45552;-71
2023/01/25 00:56:12;;;;;;;;;58.50;46.50;;;;;4.15;69.21;102934.75;5040360;28;45308;-73
2023/01/25 00:58:40;;;;;;;;;45.75;37.00;;;;;4.78;69.43;103025.75;5040554;28;45388;-70
2023/01/25 01:01:05;;;;;;;;;55.50;43.50;;;;;4.09;69.00;102906.00;5023818;28;45530;-73
2023/01/25 01:03:30;;;;;;;;;50.67;42.33;;;;;4.84;68.94;103025.56;5023559;28;45288;-73
2023/01/25 01:06:06;;;;;;;;;55.75;45.75;;;;;4.83;68.79;103029.97;5040455;28;46545;-71
2023/01/25 01:08:38;;;;;;;;;52.75;41.25;;;;;2.89;69.17;102721.28;5038836;28;45417;-72
2023/01/25 01:11:05;;;;;;;;;54.75;43.50;;;;;4.63;69.01;102994.66;5043774;28;45416;-72
2023/01/25 01:13:31;;;;;;;;;51.33;42.00;;;;;4.27;68.59;102921.19;5025386;28;45567;-71
2023/01/25 01:16:01;;;;;;;;;57.75;45.00;;;;;4.82;69.29;103017.72;5022515;28;48642;-73
2023/01/25 01:18:28;;;;;;;;;59.50;46.50;;;;;4.86;69.36;103029.00;5039583;28;45338;-73
2023/01/25 01:20:54;;;;;;;;;64.25;47.00;;;;;4.76;68.51;103011.75;5039895;28;45563;-70
2023/01/25 01:23:19;;;;;;;;;53.00;42.00;;;;;4.56;69.85;102988.69;5040398;28;45297;-73
2023/01/25 01:25:45;;;;;;;;;57.67;45.67;;;;;4.65;69.41;102998.09;5039909;28;45770;-71
2023/01/25 01:28:11;;;;;;;;;61.33;45.00;;;;;4.39;69.34;102959.41;5039825;28;45168;-71
2023/01/25 01:30:37;;;;;;;;;58.00;44.67;;;;;4.79;68.86;103027.47;5022126;28;45349;-71
2023/01/25 01:33:02;;;;;;;;;57.00;45.25;;;;;4.70;69.36;103014.59;5040101;28;45440;-72
2023/01/25 01:35:29;;;;;;;;;54.50;44.50;;;;;4.39;69.31;102969.94;5039926;28;46682;-71
2023/01/25 01:37:55;;;;;;;;;57.75;44.75;;;;;4.43;69.10;102972.47;5039956;28;45203;-72
2023/01/25 01:40:20;;;;;;;;;60.00;44.50;;;;;4.83;69.64;103023.84;5022175;28;45545;-72
2023/01/25 01:42:55;;;;;;;;;49.00;41.00;;;;;4.67;69.54;102985.72;5040093;28;45369;-72
2023/01/25 01:45:42;;;;;;;;;60.25;42.50;;;;;4.87;69.41;103026.31;5039605;28;45846;-74
2023/01/25 01:48:27;;;;;;;;;57.25;43.50;;;;;4.84;68.97;103020.28;5021542;28;45986;-72
2023/01/25 01:50:57;;;;;;;;;60.75;44.50;;;;;4.87;68.38;103033.34;5040378;28;45377;-72
2023/01/25 01:53:24;;;;;;;;;56.50;45.50;;;;;4.67;68.96;103012.94;5041028;28;45260;-70
2023/01/25 01:55:54;;;;;;;;;53.50;41.25;;;;;4.69;69.20;103036.59;5039784;28;46238;-71
2023/01/25 01:58:19;;;;;;;;;58.75;48.25;;;;;4.57;69.62;103036.06;5021255;28;45548;-73
2023/01/25 02:00:45;;;;;;;;;61.00;45.50;;;;;3.87;69.73;102961.94;5039586;28;45330;-71
2023/01/25 02:03:12;;;;;;;;;57.75;46.75;;;;;4.49;70.68;103035.47;5039773;28;45329;-72
2023/01/25 02:06:08;;;;;;;;;57.75;45.50;;;;;4.54;70.13;103033.53;5038189;28;45842;-72
2023/01/25 02:08:35;;;;;;;;;52.25;38.50;;;;;4.53;70.50;103042.34;5040397;28;45501;-71
2023/01/25 02:11:02;;;;;;;;;60.50;48.25;;;;;4.20;69.97;102969.66;5039713;28;45409;-71
2023/01/25 02:13:29;;;;;;;;;59.50;44.25;;;;;3.74;70.34;102892.16;5039324;28;45286;-70
2023/01/25 02:15:55;;;;;;;;;58.67;43.00;;;;;4.64;70.21;103041.16;5021066;28;46784;-72
2023/01/25 02:18:22;;;;;;;;;55.25;42.50;;;;;4.66;69.74;103039.34;5017543;28;46022;-71
2023/01/25 02:20:51;;;;;;;;;59.25;47.50;;;;;4.54;70.05;103017.72;5018815;28;45253;-70
2023/01/25 02:23:39;;;;;;;;;54.67;43.33;;;;;4.69;69.94;103037.47;5017929;28;45343;-70
2023/01/25 02:26:05;;;;;;;;;53.67;42.67;;;;;4.71;69.55;103030.34;5017630;28;47167;-72
2023/01/25 02:28:38;;;;;;;;;58.75;46.50;;;;;4.64;69.96;103049.94;5019068;28;45309;-72
2023/01/25 02:31:04;;;;;;;;;54.50;44.50;;;;;4.47;70.19;103024.13;5018977;28;45353;-71
2023/01/25 02:33:29;;;;;;;;;52.75;43.00;;;;;4.57;70.35;103041.34;5019271;28;45507;-72
2023/01/25 02:36:34;;;;;;;;;55.33;43.33;;;;;4.52;70.68;103045.91;5018966;28;47458;-70
2023/01/25 02:39:02;;;;;;;;;59.50;46.00;;;;;3.95;70.78;102938.84;5017210;28;45603;-72
2023/01/25 02:41:42;;;;;;;;;62.75;47.00;;;;;4.57;70.33;103051.00;5019219;28;45373;-72
2023/01/25 02:44:14;;;;;;;;;52.00;41.75;;;;;4.17;71.16;103019.78;5019597;28;45450;-72
2023/01/25 02:46:41;;;;;;;;;57.50;45.25;;;;;4.34;70.92;103042.97;5018419;28;46097;-73
2023/01/25 02:49:08;;;;;;;;;58.75;41.75;;;;;3.43;70.95;102873.84;5018840;28;45345;-71
2023/01/25 02:51:36;;;;;;;;;58.67;45.00;;;;;3.49;71.56;102883.31;5017479;28;45418;-74
2023/01/25 02:54:04;;;;;;;;;54.00;44.00;;;;;4.36;71.70;103034.13;5017357;28;45535;-71
2023/01/25 02:56:30;;;;;;;;;56.25;45.25;;;;;4.46;70.95;103047.88;5017003;28;47683;-72
2023/01/25 02:58:55;;;;;;;;;59.00;46.25;;;;;4.07;71.19;102965.72;5017229;28;45313;-71
2023/01/25 03:01:21;;;;;;;;;62.50;45.50;;;;;4.24;70.85;103000.28;5018832;28;45455;-72
2023/01/25 03:03:46;;;;;;;;;53.00;42.00;;;;;4.44;71.61;103037.38;5019045;28;45337;-72
2023/01/25 03:06:12;;;;;;;;;59.50;43.25;;;;;4.38;71.35;103034.94;5017201;28;48084;-72
2023/01/25 03:08:37;;;;;;;;;59.50;48.50;;;;;3.95;71.28;102943.25;5018768;28;45447;-72
2023/01/25 03:11:05;;;;;;;;;60.00;48.75;;;;;4.40;71.58;103027.84;5018607;28;45337;-73
2023/01/25 03:13:32;;;;;;;;;47.50;40.75;;;;;4.45;71.99;103043.53;5019645;28;45368;-73
2023/01/25 03:16:00;;;;;;;;;63.25;47.50;;;;;4.08;71.71;102959.53;5018624;28;46102;-70
2023/01/25 03:18:26;;;;;;;;;50.25;39.50;;;;;3.86;71.77;102919.88;5016437;28;45431;-74
2023/01/25 03:20:51;;;;;;;;;63.50;48.25;;;;;4.44;72.25;103016.31;5018984;28;45294;-72
2023/01/25 03:23:17;;;;;;;;;56.75;45.75;;;;;4.51;71.14;103028.38;5018664;28;45320;-72
2023/01/25 03:25:42;;;;;;;;;62.50;47.25;;;;;4.20;71.12;102964.41;5018331;28;45429;-71
2023/01/25 03:28:07;;;;;;;;;32.67;28.67;;;;;4.53;71.46;103023.91;5018364;28;45626;-71
2023/01/25 03:30:33;;;;;;;;;56.50;45.00;;;;;4.45;71.22;102996.09;5018301;28;45411;-73
2023/01/25 03:32:58;;;;;;;;;54.00;42.00;;;;;4.65;70.86;103030.56;5018513;28;45313;-72
2023/01/25 03:35:23;;;;;;;;;64.75;45.25;;;;;4.67;71.67;103033.16;5019724;28;46640;-72
2023/01/25 03:37:49;;;;;;;;;60.25;47.50;;;;;3.82;72.12;102911.22;5018766;28;45416;-72
2023/01/25 03:40:14;;;;;;;;;55.00;42.25;;;;;4.01;72.27;102968.56;5017349;28;45346;-71
2023/01/25 03:42:40;;;;;;;;;57.00;45.33;;;;;4.40;72.58;103025.19;5018307;28;45411;-73
2023/01/25 03:45:06;;;;;;;;;49.50;42.00;;;;;4.07;72.38;102953.41;5018214;28;45435;-70
2023/01/25 03:47:31;;;;;;;;;56.50;47.25;;;;;4.38;72.39;103018.25;5019250;28;45446;-71
2023/01/25 03:49:56;;;;;;;;;57.33;46.00;;;;;4.35;73.30;103015.72;5018388;28;45268;-72
2023/01/25 03:52:24;;;;;;;;;52.75;40.25;;;;;4.37;72.69;103029.72;5018270;28;45484;-73
2023/01/25 03:54:49;;;;;;;;;54.50;43.50;;;;;4.28;72.83;103010.66;5018115;28;45793;-72
2023/01/25 03:57:15;;;;;;;;;62.00;47.33;;;;;3.73;73.52;102914.13;5018019;28;45310;-73
2023/01/25 03:59:40;;;;;;;;;59.50;49.00;;;;;4.36;73.74;103023.56;5017672;28;45444;-72
2023/01/25 04:02:05;;;;;;;;;61.25;42.75;;;;;4.28;73.25;103000.13;5016627;28;45492;-72
2023/01/25 04:04:31;;;;;;;;;64.75;49.50;;;;;4.34;73.59;103019.28;5017746;28;45638;-72
2023/01/25 04:06:56;;;;;;;;;60.00;44.00;;;;;4.38;73.74;103021.75;5017677;28;45302;-72
2023/01/25 04:09:22;;;;;;;;;61.00;46.50;;;;;4.38;74.07;103015.63;5017797;28;45313;-72
2023/01/25 04:11:50;;;;;;;;;60.50;48.00;;;;;4.36;73.47;102996.38;5017750;28;45281;-71
2023/01/25 04:14:15;;;;;;;;;59.50;46.25;;;;;4.40;73.59;103016.44;5017508;28;45801;-71
2023/01/25 04:16:41;;;;;;;;;65.25;47.00;;;;;4.41;73.01;103010.28;5017351;28;45227;-71
2023/01/25 04:19:07;;;;;;;;;68.75;54.50;;;;;4.27;74.17;103003.69;5028965;28;45633;-72
2023/01/25 04:21:32;;;;;;;;;64.00;46.00;;;;;4.03;74.73;102972.00;5037809;28;45153;-71
2023/01/25 04:23:57;;;;;;;;;61.25;46.00;;;;;4.31;74.82;103016.75;5019064;28;47077;-73
2023/01/25 04:26:23;;;;;;;;;59.00;45.75;;;;;4.29;74.73;103016.78;5037193;28;45302;-72
2023/01/25 04:28:49;;;;;;;;;61.25;46.75;;;;;4.31;74.34;103019.38;5036402;28;45195;-71
2023/01/25 04:31:14;;;;;;;;;61.50;47.00;;;;;4.31;73.67;103017.59;5037439;28;45666;-73
2023/01/25 04:33:40;;;;;;;;;60.00;42.00;;;;;4.17;74.15;103022.44;5037310;28;46652;-71
2023/01/25 04:36:05;;;;;;;;;58.75;48.25;;;;;1.32;74.71;102539.47;5037485;28;45188;-74
2023/01/25 04:38:31;;;;;;;;;56.75;46.75;;;;;3.89;74.81;102970.63;5019369;28;45563;-71
2023/01/25 04:40:56;;;;;;;;;56.25;45.25;;;;;3.10;75.10;102867.81;5037204;28;45295;-74
2023/01/25 04:43:22;;;;;;;;;60.25;48.25;;;;;4.08;75.04;102985.88;5037088;28;45874;-73
2023/01/25 04:45:47;;;;;;;;;57.75;46.50;;;;;3.84;74.78;102940.97;5037058;28;45464;-72
2023/01/25 04:48:13;;;;;;;;;59.50;43.50;;;;;4.32;74.78;103011.44;5037159;28;45329;-73
2023/01/25 04:50:40;;;;;;;;;55.00;41.00;;;;;4.40;75.26;103019.94;5037277;28;45436;-73
2023/01/25 04:53:06;;;;;;;;;41.33;36.67;;;;;4.38;74.02;103018.25;5037068;28;46129;-72
2023/01/25 04:55:33;;;;;;;;;53.75;41.00;;;;;3.49;74.35;102870.16;5018945;28;45314;-72
2023/01/25 04:57:59;;;;;;;;;62.00;45.33;;;;;4.37;74.76;103009.50;5037255;28;45433;-71
2023/01/25 05:00:25;;;;;;;;;55.00;42.33;;;;;4.41;73.82;103000.63;5037961;28;45262;-73
2023/01/25 05:02:50;;;;;;;;;57.75;44.75;;;;;4.39;73.72;103004.19;5037453;28;46892;-73
2023/01/25 05:05:16;;;;;;;;;50.50;41.25;;;;;4.33;74.64;103007.88;5036531;28;45380;-74
2023/01/25 05:07:41;;;;;;;;;54.33;42.33;;;;;4.37;74.71;103025.31;5036786;28;45255;-73
2023/01/25 05:10:08;;;;;;;;;61.33;45.67;;;;;2.46;74.22;102700.69;5037254;28;45395;-72
2023/01/25 05:12:33;;;;;;;;;54.25;41.75;;;;;4.18;73.90;102992.56;5019245;28;45922;-72
2023/01/25 05:14:59;;;;;;;;;56.33;45.67;;;;;4.13;74.00;102991.84;5037481;28;45372;-73
2023/01/25 05:17:24;;;;;;;;;59.00;42.00;;;;;3.95;74.87;102980.97;5037570;28;45498;-72
2023/01/25 05:19:50;;;;;;;;;49.33;38.00;;;;;3.93;75.11;102995.09;5037558;28;45512;-72
2023/01/25 05:22:19;;;;;;;;;44.67;39.33;;;;;3.98;75.07;103006.31;5019535;28;48109;-74
2023/01/25 05:24:45;;;;;;;;;44.00;35.33;;;;;4.00;75.06;103019.44;5037399;28;45484;-72
2023/01/25 05:27:12;;;;;;;;;39.67;33.33;;;;;3.84;75.43;102976.97;5037983;28;45316;-72
2023/01/25 05:29:40;;;;;;;;;49.67;38.67;;;;;3.98;75.46;103007.19;5020473;28;45469;-72
2023/01/25 05:32:12;;;;;;;;;48.00;36.33;;;;;3.70;74.82;102940.53;5037512;28;46279;-71
2023/01/25 05:34:38;;;;;;;;;49.00;36.67;;;;;4.07;75.59;102989.41;5019074;28;45458;-76
2023/01/25 05:37:05;;;;;;;;;46.00;35.67;;;;;3.31;75.46;102869.81;5037320;28;45419;-74
2023/01/25 05:39:31;;;;;;;;;57.00;39.33;;;;;4.14;74.69;102990.94;5020019;28;45555;-73
2023/01/25 05:41:56;;;;;;;;;34.67;25.33;;;;;3.96;73.33;102974.78;5022718;28;46712;-73
2023/01/25 05:44:22;;;;;;;;;38.67;31.33;;;;;3.47;73.33;102887.75;5023415;28;45203;-73
2023/01/25 05:46:47;;;;;;;;;43.33;27.67;;;;;3.50;73.64;102920.06;5023078;28;45262;-72
2023/01/25 05:49:13;;;;;;;;;48.00;33.00;;;;;2.75;74.14;102806.59;5041481;28;45240;-72
2023/01/25 05:51:39;;;;;;;;;44.33;34.33;;;;;3.79;74.57;102963.91;5022737;28;48222;-73
2023/01/25 05:54:16;;;;;;;;;32.00;24.67;;;;;3.98;73.51;103001.94;5040928;28;45630;-71
2023/01/25 05:56:42;;;;;;;;;37.00;26.33;;;;;3.73;73.93;102950.09;5040767;28;45448;-73
2023/01/25 05:59:10;;;;;;;;;30.33;26.67;;;;;3.39;73.73;102905.50;5022395;28;45455;-74
2023/01/25 06:01:36;;;;;;;;;35.00;25.67;;;;;3.81;73.25;102972.66;5040246;28;46991;-74
2023/01/25 06:04:01;;;;;;;;;32.67;26.00;;;;;3.50;73.65;102913.97;5040263;28;45472;-73
2023/01/25 06:06:27;;;;;;;;;29.00;24.67;;;;;4.00;73.42;102986.09;5022803;28;45333;-71
2023/01/25 06:08:52;;;;;;;;;33.00;25.00;;;;;3.97;72.39;102967.75;5039987;28;45276;-73
2023/01/25 06:11:21;;;;;;;;;28.00;23.33;;;;;4.07;72.97;102999.94;5021886;28;46876;-74
2023/01/25 06:13:48;;;;;;;;;24.33;22.00;;;;;4.02;71.37;102980.81;5039986;28;45402;-73
2023/01/25 06:16:14;;;;;;;;;43.00;32.00;;;;;4.13;71.99;102982.19;5040041;28;45452;-73
2023/01/25 06:18:39;;;;;;;;;25.67;23.00;;;;;3.88;71.58;102923.31;5041022;28;45336;-73
2023/01/25 06:21:08;;;;;;;;;25.67;20.67;;;;;3.52;70.97;102859.53;5006120;28;47227;-72
2023/01/25 06:23:37;;;;;;;;;30.67;25.33;;;;;4.29;71.56;102979.94;5012534;28;45710;-73
2023/01/25 06:26:09;;;;;;;;;20.67;15.00;;;;;4.33;71.27;102986.81;5024625;28;45401;-75
2023/01/25 06:28:36;;;;;;;;;33.00;23.67;;;;;3.69;71.26;102888.81;5024877;28;45207;-77
2023/01/25 06:31:13;;;;;;;;;23.67;20.33;;;;;3.76;71.21;102919.28;5022643;28;46259;-71
2023/01/25 06:33:40;;;;;;;;;14.33;14.00;;;;;4.12;71.11;102992.75;5002787;28;45777;-72
2023/01/25 06:36:10;;;;;;;;;25.67;21.67;;;;;3.79;71.46;102952.53;5002914;28;45307;-72
2023/01/25 06:38:35;;;;;;;;;19.00;15.33;;;;;4.01;71.12;102992.25;5022360;28;45499;-73
2023/01/25 06:41:02;;;;;;;;;24.00;21.33;;;;;3.30;71.58;102897.00;5010397;28;46780;-72
2023/01/25 06:43:29;;;;;;;;;12.00;10.00;;;;;3.79;71.10;102989.38;5038777;28;45499;-71
2023/01/25 06:45:59;;;;;;;;;27.00;20.33;;;;;3.43;71.55;102920.31;5039019;28;45327;-70
2023/01/25 06:48:25;;;;;;;;;24.67;18.00;;;;;3.76;71.76;102965.78;5021102;28;45468;-73
2023/01/25 06:50:58;;;;;;;;;26.00;23.00;;;;;3.76;71.53;102974.53;5019356;28;45291;-72
2023/01/25 06:53:25;;;;;;;;;27.33;24.33;;;;;3.86;72.26;102965.47;5038512;28;45309;-73
2023/01/25 06:56:06;;;;;;;;;23.67;19.67;;;;;3.37;71.33;102887.16;5017494;28;45523;-71
2023/01/25 06:58:32;;;;;;;;;29.00;20.33;;;;;4.02;71.78;102965.00;5018639;28;45401;-74
2023/01/25 07:01:00;;;;;;;;;25.33;22.00;;;;;3.97;70.74;102968.63;5025264;28;46443;-73
2023/01/25 07:03:27;;;;;;;;;18.67;16.33;;;;;3.32;71.27;102895.19;5020247;28;45495;-71
2023/01/25 07:06:00;;;;;;;;;25.00;19.67;;;;;3.59;71.80;102955.75;5038468;28;45360;-72
2023/01/25 07:08:26;;;;;;;;;27.67;21.33;;;;;3.58;72.31;102970.66;5038904;28;45358;-72
2023/01/25 07:10:56;;;;;;;;;19.00;17.00;;;;;3.56;72.03;102966.38;5032578;28;45709;-71
2023/01/25 07:13:22;;;;;;;;;24.67;19.67;;;;;3.50;71.73;102956.03;5028164;28;45224;-72
2023/01/25 07:15:54;;;;;;;;;27.00;24.67;;;;;3.64;71.72;102964.41;5033138;28;45464;-73
2023/01/25 07:18:19;;;;;;;;;25.33;20.67;;;;;3.42;72.07;102910.72;5018924;28;45321;-75
2023/01/25 07:20:45;;;;;;;;;22.00;14.33;;;;;3.53;72.17;102961.19;5044180;28;47792;-74
2023/01/25 07:23:10;;;;;;;;;30.00;23.67;;;;;3.73;72.05;102989.56;5059878;28;45475;-74
2023/01/25 07:25:36;;;;;;;;;32.33;25.67;;;;;3.59;72.19;102942.59;5058896;28;45257;-73
2023/01/25 07:28:01;;;;;;;;;27.33;25.67;;;;;3.30;71.46;102907.50;5058762;28;45368;-76
2023/01/25 07:30:26;;;;;;;;;35.00;21.33;;;;;3.54;71.88;102955.03;5059552;28;45469;-74
2023/01/25 07:32:52;;;;;;;;;32.00;23.00;;;;;3.31;72.01;102909.22;5040825;28;45534;-73
2023/01/25 07:35:17;;;;;;;;;24.00;24.00;;;;;3.15;72.67;102883.44;5041222;28;45257;-73
2023/01/25 07:37:42;;;;;;;;;27.33;25.67;;;;;3.58;72.26;102951.41;5047969;28;45467;-72
2023/01/25 07:40:08;;;;;;;;;28.00;20.33;;;;;3.75;71.76;102967.56;5030360;28;45606;-76
2023/01/25 07:42:34;;;;;;;;;30.00;25.33;;;;;3.32;72.21;102920.63;5039055;28;46762;-75
2023/01/25 07:45:00;;;;;;;;;28.67;24.33;;;;;3.48;73.18;102958.72;5037446;28;45243;-72
2023/01/25 07:47:26;;;;;;;;;32.00;23.67;;;;;3.59;72.51;102968.91;5037288;28;45700;-73
2023/01/25 07:49:53;;;;;;;;;29.33;25.00;;;;;3.48;72.56;102942.06;5038708;28;46276;-71
2023/01/25 07:52:19;;;;;;;;;33.33;29.67;;;;;3.77;71.99;102981.53;5039656;28;45266;-73
2023/01/25 07:54:45;;;;;;;;;34.33;28.67;;;;;3.63;72.40;102978.47;5039555;28;45413;-73
2023/01/25 07:57:11;;;;;;;;;31.00;25.33;;;;;3.48;73.16;102971.00;5035523;28;45361;-72
2023/01/25 07:59:36;;;;;;;;;36.33;25.00;;;;;3.44;73.37;102974.63;5035076;28;45541;-73
2023/01/25 08:02:02;;;;;;;;;33.67;26.67;;;;;3.34;72.94;102958.22;5023741;28;45470;-71
2023/01/25 08:04:27;;;;;;;;;35.67;30.33;;;;;2.67;73.34;102841.88;5039638;28;45300;-73
2023/01/25 08:06:53;;;;;;;;;31.33;28.33;;;;;3.19;73.07;102927.97;5024718;28;45488;-73
2023/01/25 08:09:18;;;;;;;;;29.00;26.00;;;;;2.65;72.54;102810.41;5036937;28;45735;-72
2023/01/25 08:11:44;;;;;;;;;34.00;27.33;;;;;3.61;72.23;102975.88;5035719;28;45339;-75
2023/01/25 08:14:10;;;;;;;;;31.33;29.33;;;;;3.21;73.34;102918.31;5035204;28;45277;-73
2023/01/25 08:16:36;;;;;;;;;29.67;25.67;;;;;3.61;72.49;102978.50;5019482;28;45527;-73
2023/01/25 08:19:02;;;;;;;;;33.00;27.00;;;;;3.69;72.41;102983.53;5039016;28;46269;-75
2023/01/25 08:21:29;;;;;;;;;31.67;24.33;;;;;3.78;71.71;102972.72;5038141;28;45528;-74
2023/01/25 08:23:59;;;;;;;;;26.33;23.67;;;;;3.85;71.72;102974.28;5035868;28;45582;-71
2023/01/25 08:26:26;;;;;;;;;28.33;25.33;;;;;3.96;71.28;102966.03;5034886;28;45327;-73
2023/01/25 08:28:52;;;;;;;;;21.00;18.00;;;;;3.78;70.95;102967.44;5016820;28;47324;-76
2023/01/25 08:31:21;;;;;;;;;31.33;25.67;;;;;3.60;71.50;102957.47;5035450;28;45409;-71
2023/01/25 08:33:47;;;;;;;;;29.00;19.33;;;;;3.67;71.63;102953.78;5048074;28;45388;-71
2023/01/25 08:36:14;;;;;;;;;27.67;23.00;;;;;3.79;72.33;102971.81;5021116;28;45350;-72
2023/01/25 08:38:40;;;;;;;;;31.00;25.33;;;;;3.78;71.32;102948.19;5019366;28;46433;-71
2023/01/25 08:41:11;;;;;;;;;29.00;26.67;;;;;3.54;70.59;102899.81;5036588;28;45220;-71
2023/01/25 08:43:37;;;;;;;;;28.67;20.33;;;;;3.12;70.72;102817.81;5036878;28;45484;-72
2023/01/25 08:46:02;;;;;;;;;31.67;23.67;;;;;3.49;69.91;102906.97;5036690;28;45365;-72
2023/01/25 08:48:28;;;;;;;;;25.00;24.00;;;;;3.70;70.81;102953.69;5036738;28;45485;-76
2023/01/25 08:50:53;;;;;;;;;35.00;27.67;;;;;3.50;70.77;102913.97;5018815;28;45353;-78
2023/01/25 08:53:18;;;;;;;;;31.00;26.67;;;;;3.77;70.90;102949.94;5037438;28;45435;-72
2023/01/25 08:55:44;;;;;;;;;35.33;27.00;;;;;3.88;70.95;102968.91;5036902;28;45218;-72
2023/01/25 08:58:12;;;;;;;;;38.33;28.67;;;;;2.97;70.09;102782.34;5036912;28;46459;-73
2023/01/25 09:00:38;;;;;;;;;19.00;14.33;;;;;3.47;69.61;102862.31;5036668;28;45528;-75
2023/01/25 09:03:03;;;;;;;;;26.33;23.00;;;;;3.01;70.09;102776.97;5021035;28;45429;-73
2023/01/25 09:05:29;;;;;;;;;35.00;27.33;;;;;3.13;70.17;102788.00;5026870;28;45569;-72
2023/01/25 09:07:54;;;;;;;;;23.67;21.33;;;;;3.37;69.45;102850.34;5035327;28;47202;-72
2023/01/25 09:10:20;;;;;;;;;34.67;29.67;;;;;3.71;70.13;102960.66;5037269;28;45341;-71
2023/01/25 09:12:45;;;;;;;;;24.67;20.00;;;;;3.47;71.23;102945.59;5037453;28;45507;-73
2023/01/25 09:15:11;;;;;;;;;28.00;23.00;;;;;2.91;71.13;102887.63;5019592;28;45587;-73
2023/01/25 09:17:37;;;;;;;;;28.67;25.67;;;;;3.32;72.15;102955.66;5040025;28;45566;-73
2023/01/25 09:20:05;;;;;;;;;35.67;27.33;;;;;3.01;72.04;102878.59;5039768;28;45327;-73
2023/01/25 09:22:31;;;;;;;;;35.67;25.00;;;;;3.48;71.97;102942.06;5055721;28;45453;-74
2023/01/25 09:24:56;;;;;;;;;32.67;30.00;;;;;3.36;71.01;102899.44;5040160;28;45213;-75
2023/01/25 09:27:22;;;;;;;;;30.33;25.00;;;;;3.48;71.96;102921.91;5040096;28;45741;-72
2023/01/25 09:29:47;;;;;;;;;27.33;23.33;;;;;3.69;71.39;102951.09;5039928;28;45447;-72
2023/01/25 09:32:12;;;;;;;;;32.00;27.67;;;;;3.19;71.33;102828.09;5021785;28;45505;-72
2023/01/25 09:34:38;;;;;;;;;34.00;30.00;;;;;4.02;70.72;102943.97;5039450;28;45489;-72
2023/01/25 09:37:03;;;;;;;;;30.33;25.67;;;;;3.90;70.35;102918.88;5040121;28;46138;-74
2023/01/25 09:39:29;;;;;;;;;35.67;28.33;;;;;3.76;70.77;102929.81;5040992;28;45459;-72
2023/01/25 09:42:03;;;;;;;;;38.00;31.33;;;;;3.78;71.35;102935.88;5022979;28;45411;-74
2023/01/25 09:44:53;;;;;;;;;34.67;26.33;;;;;3.91;70.73;102939.88;5039779;28;45381;-72
2023/01/25 09:47:39;;;;;;;;;35.00;31.00;;;;;3.59;70.69;102874.22;5040140;28;45330;-72
2023/01/25 09:50:18;;;;;;;;;32.33;24.67;;;;;4.07;70.14;102942.91;5040125;28;45381;-72
2023/01/25 09:52:56;;;;;;;;;33.00;27.33;;;;;4.16;70.15;102944.34;5039875;28;45409;-72
2023/01/25 09:55:26;;;;;;;;;32.67;29.67;;;;;4.28;69.66;102941.34;5039602;28;45675;-73
2023/01/25 09:57:59;;;;;;;;;28.33;26.33;;;;;4.06;69.25;102925.38;5041021;28;45562;-71
2023/01/25 10:00:41;;;;;;;;;40.67;33.33;;;;;3.90;70.25;102942.56;5042383;28;45207;-72
2023/01/25 10:03:23;;;;;;;;;34.33;30.67;;;;;3.65;70.06;102924.03;5040153;28;45418;-75
2023/01/25 10:05:52;;;;;;;;;34.67;29.33;;;;;3.93;70.23;102953.84;5039663;28;45321;-73
2023/01/25 10:08:29;;;;;;;;;40.67;35.67;;;;;4.08;70.34;102946.38;5038824;28;45768;-72
2023/01/25 10:11:19;;;;;;;;;32.33;26.67;;;;;3.51;69.41;102840.28;5039269;28;45527;-75
2023/01/25 10:13:44;;;;;;;;;25.33;24.67;;;;;3.85;69.10;102876.91;5039751;28;45491;-71
2023/01/25 10:16:36;;;;;;;;;41.67;32.67;;;;;4.36;68.43;102951.63;5022554;28;45578;-71
2023/01/25 10:19:21;;;;;;;;;42.00;32.33;;;;;4.31;68.57;102929.84;4995056;28;47912;-71
2023/01/25 10:22:02;;;;;;;;;41.67;31.67;;;;;3.96;68.62;102911.63;5039095;28;45297;-72
2023/01/25 10:25:03;;;;;;;;;31.00;28.00;;;;;4.25;68.65;102962.50;5020990;28;45320;-73
2023/01/25 10:27:44;;;;;;;;;31.67;28.00;;;;;4.15;67.83;102966.31;5001079;28;45651;-74
2023/01/25 10:30:27;;;;;;;;;29.67;26.67;;;;;3.77;67.97;102910.47;5054694;28;45442;-73
2023/01/25 10:33:12;;;;;;;;;33.00;26.00;;;;;4.01;68.81;102947.50;5039641;28;45505;-72
2023/01/25 10:35:43;;;;;;;;;34.33;31.00;;;;;4.01;68.78;102951.00;5038497;28;45168;-72
2023/01/25 10:38:19;;;;;;;;;36.67;30.00;;;;;3.75;68.89;102916.69;5038835;28;45306;-73
2023/01/25 10:40:55;;;;;;;;;30.33;27.33;;;;;3.89;68.59;102952.22;5038745;28;45592;-73
2023/01/25 10:43:21;;;;;;;;;31.67;27.00;;;;;3.85;69.04;102924.28;5038503;28;45503;-71
2023/01/25 10:45:49;;;;;;;;;30.67;25.00;;;;;4.00;68.70;102946.59;5039043;28;45558;-73
2023/01/25 10:48:35;;;;;;;;;41.33;36.00;;;;;3.80;69.42;102935.84;5020915;28;45253;-71
2023/01/25 10:51:00;;;;;;;;;40.00;31.33;;;;;3.83;69.10;102947.16;5038394;28;46116;-73
2023/01/25 10:53:43;;;;;;;;;42.00;36.33;;;;;2.95;68.99;102781.53;5038779;28;45249;-72
2023/01/25 10:56:08;;;;;;;;;40.33;35.33;;;;;3.86;69.03;102930.41;5038930;28;45332;-74
2023/01/25 10:58:36;;;;;;;;;38.67;33.00;;;;;3.94;68.82;102926.63;5038404;28;45493;-72
2023/01/25 11:01:05;;;;;;;;;48.00;32.67;;;;;3.59;69.36;102840.88;5038552;28;47123;-75
2023/01/25 11:03:38;;;;;;;;;44.33;36.33;;;;;4.19;68.12;102931.09;5039087;28;45524;-72
2023/01/25 11:06:05;;;;;;;;;45.33;37.00;;;;;1.84;68.19;102517.94;5038619;28;45305;-71
2023/01/25 11:08:40;;;;;;;;;34.67;32.00;;;;;4.23;68.80;102932.75;5039554;28;45380;-72
2023/01/25 11:11:36;;;;;;;;;45.33;36.33;;;;;3.59;67.49;102814.59;5053785;28;48542;-72
2023/01/25 11:14:15;;;;;;;;;38.33;30.67;;;;;4.16;67.85;102905.72;5037898;28;45457;-71
2023/01/25 11:16:45;;;;;;;;;37.67;34.00;;;;;4.25;67.99;102915.13;5038522;28;45277;-74
2023/01/25 11:19:33;;;;;;;;;44.00;38.33;;;;;4.26;68.44;102907.16;5040664;28;45428;-73
2023/01/25 11:22:01;;;;;;;;;44.00;36.33;;;;;4.06;67.69;102882.41;5023928;28;47216;-76
2023/01/25 11:24:33;;;;;;;;;48.67;38.00;;;;;4.13;68.05;102883.91;5019234;28;45498;-71